createdAt,value
2023-05-05T00:11:57.355Z,63.82
2023-05-05T00:14:24.277Z,63.88
2023-05-05T00:16:51.374Z,63.94
2023-05-05T00:19:18.423Z,64.04
2023-05-05T00:21:48.722Z,64.14
2023-05-05T00:24:15.758Z,64.43
2023-05-05T00:26:42.530Z,64.45
2023-05-05T00:29:09.443Z,64.60
2023-05-05T00:31:38.068Z,64.53
2023-05-05T00:34:04.961Z,64.48
2023-05-05T00:36:32.174Z,64.51
2023-05-05T00:38:59.100Z,64.61
2023-05-05T00:41:26.255Z,65.16
2023-05-05T00:43:53.259Z,65.45
2023-05-05T00:46:31.784Z,65.09
2023-05-05T00:48:59.930Z,65.22
2023-05-05T00:51:28.484Z,65.29
2023-05-05T00:53:56.058Z,65.04
2023-05-05T00:56:23.533Z,64.60
2023-05-05T00:58:50.699Z,65.03
2023-05-05T01:01:18.016Z,65.11
2023-05-05T01:03:45.101Z,65.41
2023-05-05T01:06:35.188Z,65.78
2023-05-05T01:09:11.757Z,66.98
2023-05-05T01:12:01.275Z,67.14
2023-05-05T01:15:00.074Z,66.01
2023-05-05T01:17:36.482Z,66.37
2023-05-05T01:20:32.257Z,67.95
2023-05-05T01:23:04.526Z,67.44
2023-05-05T01:25:43.357Z,67.57
2023-05-05T01:28:19.124Z,69.67
2023-05-05T01:31:10.940Z,70.38
2023-05-05T01:33:48.143Z,70.77
2023-05-05T01:36:23.151Z,71.62
2023-05-05T01:38:58.201Z,72.10
2023-05-05T01:41:30.367Z,72.92
2023-05-05T01:44:01.885Z,72.60
2023-05-05T01:46:30.634Z,72.88
2023-05-05T01:48:59.178Z,72.28
2023-05-05T01:51:28.273Z,72.66
2023-05-05T01:54:02.280Z,72.77
2023-05-05T01:56:31.600Z,73.38
2023-05-05T01:59:00.781Z,73.73
2023-05-05T02:01:29.130Z,73.41
2023-05-05T02:03:57.540Z,73.35
2023-05-05T02:06:27.143Z,72.91
2023-05-05T02:08:54.872Z,73.72
2023-05-05T02:11:22.119Z,73.98
2023-05-05T02:13:51.416Z,73.83
2023-05-05T02:16:21.070Z,73.92
2023-05-05T02:18:49.501Z,73.69
2023-05-05T02:21:23.225Z,73.70
2023-05-05T02:23:52.213Z,72.05
2023-05-05T02:26:22.016Z,73.65
2023-05-05T02:29:20.311Z,74.52
2023-05-05T02:31:51.013Z,74.41
2023-05-05T02:34:25.599Z,74.26
2023-05-05T02:36:55.939Z,74.60
2023-05-05T02:39:32.037Z,74.64
2023-05-05T02:42:04.943Z,74.70
2023-05-05T02:44:33.412Z,74.78
2023-05-05T02:47:05.186Z,74.95
2023-05-05T02:49:34.841Z,75.80
2023-05-05T02:52:02.064Z,75.39
2023-05-05T02:54:29.332Z,75.47
2023-05-05T02:56:58.257Z,76.10
2023-05-05T02:59:40.913Z,76.82
2023-05-05T03:02:19.008Z,76.69
2023-05-05T03:04:52.998Z,77.12
2023-05-05T03:07:26.993Z,76.97
2023-05-05T03:10:27.916Z,76.67
2023-05-05T03:12:59.590Z,75.92
2023-05-05T03:15:31.035Z,77.13
2023-05-05T03:18:07.034Z,75.74
2023-05-05T03:20:34.434Z,75.38
2023-05-05T03:25:50.331Z,75.84
2023-05-05T03:28:18.333Z,76.10
2023-05-05T03:30:45.376Z,76.97
2023-05-05T03:33:12.491Z,76.18
2023-05-05T03:35:44.088Z,76.59
2023-05-05T03:41:07.317Z,76.24
2023-05-05T03:43:37.589Z,76.44
2023-05-05T03:46:04.762Z,77.14
2023-05-05T03:48:34.596Z,76.29
2023-05-05T03:51:02.109Z,76.36
2023-05-05T03:53:38.190Z,77.42
2023-05-05T03:56:05.718Z,78.42
2023-05-05T03:58:32.821Z,78.48
2023-05-05T04:01:00.140Z,78.53
2023-05-05T04:03:28.661Z,78.10
2023-05-05T04:05:56.252Z,77.91
2023-05-05T04:08:23.206Z,77.61
2023-05-05T04:10:50.668Z,78.04
2023-05-05T04:13:17.705Z,78.09
2023-05-05T04:15:48.256Z,78.07
2023-05-05T04:18:15.328Z,78.01
2023-05-05T04:20:42.730Z,77.93
2023-05-05T04:23:17.631Z,77.15
2023-05-05T04:25:50.139Z,77.32
2023-05-05T04:28:21.768Z,77.72
2023-05-05T04:30:49.044Z,77.23
2023-05-05T04:33:16.157Z,78.03
2023-05-05T04:35:43.206Z,78.31
2023-05-05T04:38:10.156Z,78.95
2023-05-05T04:40:41.580Z,78.53
2023-05-05T04:43:08.871Z,78.18
2023-05-05T04:45:35.817Z,77.90
2023-05-05T04:48:02.709Z,77.92
2023-05-05T04:50:32.405Z,77.34
2023-05-05T04:53:03.156Z,77.81
2023-05-05T04:55:29.898Z,77.69
2023-05-05T04:57:56.798Z,77.09
2023-05-05T05:00:26.642Z,76.73
2023-05-05T05:02:55.496Z,77.16
2023-05-05T05:05:23.096Z,77.38
2023-05-05T05:07:59.465Z,77.39
2023-05-05T05:10:26.608Z,77.04
2023-05-05T05:12:53.868Z,76.72
2023-05-05T05:15:21.148Z,77.04
2023-05-05T05:17:48.240Z,76.43
2023-05-05T05:20:15.153Z,76.46
2023-05-05T05:22:42.602Z,76.20
2023-05-05T05:25:09.807Z,75.42
2023-05-05T05:27:37.106Z,75.27
2023-05-05T05:30:04.369Z,75.69
2023-05-05T05:32:32.350Z,75.89
2023-05-05T05:35:02.752Z,76.19
2023-05-05T05:37:33.137Z,75.37
2023-05-05T05:40:00.247Z,74.96
2023-05-05T05:45:26.614Z,74.47
2023-05-05T05:47:53.801Z,74.59
2023-05-05T05:50:21.320Z,74.38
2023-05-05T05:52:48.288Z,74.22
2023-05-05T05:55:15.495Z,74.72
2023-05-05T05:57:42.595Z,74.90
2023-05-05T06:00:10.137Z,75.08
2023-05-05T06:02:37.345Z,75.10
2023-05-05T06:05:11.262Z,75.30
2023-05-05T06:07:38.583Z,75.05
2023-05-05T06:10:22.928Z,74.99
2023-05-05T06:12:53.655Z,74.34
2023-05-05T06:15:20.843Z,74.15
2023-05-05T06:17:48.229Z,74.11
2023-05-05T06:20:15.458Z,74.33
2023-05-05T06:22:42.529Z,75.02
2023-05-05T06:25:09.656Z,75.00
2023-05-05T06:55:15.104Z,74.78
2023-05-05T17:58:40.315Z,90.15
2023-05-05T18:01:07.136Z,90.32
2023-05-05T18:03:34.145Z,89.84
2023-05-05T18:06:02.723Z,90.20
2023-05-05T18:08:29.407Z,89.93
2023-05-05T18:10:56.276Z,91.32
2023-05-05T18:13:23.074Z,91.99
2023-05-05T18:15:49.813Z,92.15
2023-05-05T18:18:16.701Z,93.04
2023-05-05T18:20:44.188Z,94.09
2023-05-05T18:23:11.366Z,94.42
2023-05-05T18:25:38.190Z,94.69
2023-05-05T18:28:05.667Z,94.99
2023-05-05T18:30:33.183Z,94.96
2023-05-05T18:33:00.320Z,94.11
2023-05-05T18:35:27.238Z,93.44
2023-05-05T18:37:55.191Z,93.90
2023-05-05T18:40:22.815Z,94.70
2023-05-05T18:42:50.004Z,94.81
2023-05-05T18:45:16.960Z,94.31
2023-05-05T18:47:44.396Z,95.29
2023-05-05T18:50:11.651Z,95.20
2023-05-05T18:52:38.495Z,95.12
2023-05-05T18:55:06.017Z,94.92
2023-05-05T18:57:32.951Z,95.13
2023-05-05T19:00:00.716Z,95.10
2023-05-05T19:02:27.508Z,94.35
2023-05-05T19:04:54.296Z,94.76
2023-05-05T19:07:33.817Z,94.43
2023-05-05T19:10:02.453Z,94.29
2023-05-05T19:12:29.152Z,94.88
2023-05-05T19:14:55.987Z,94.80
2023-05-05T19:17:22.810Z,95.35
2023-05-05T19:19:50.004Z,95.19
2023-05-05T19:22:17.753Z,95.24
2023-05-05T19:24:44.549Z,94.92
2023-05-05T19:27:16.386Z,94.94
2023-05-05T19:29:43.811Z,94.87
2023-05-05T19:32:11.071Z,95.32
2023-05-05T19:34:37.874Z,95.14
2023-05-05T19:37:04.695Z,94.91
2023-05-05T19:39:31.490Z,95.07
2023-05-05T19:41:58.320Z,94.98
2023-05-05T19:44:25.026Z,95.24
2023-05-05T19:46:53.062Z,95.29
2023-05-05T19:49:19.860Z,95.08
2023-05-05T19:51:49.880Z,95.33
2023-05-05T19:54:17.049Z,95.87
2023-05-05T19:56:43.940Z,96.08
2023-05-05T19:59:11.057Z,96.36
2023-05-05T20:01:38.072Z,96.41
2023-05-05T20:04:05.133Z,96.56
2023-05-05T20:06:32.840Z,96.31
2023-05-05T20:09:00.645Z,96.34
2023-05-05T20:11:27.246Z,96.71
2023-05-05T20:13:54.133Z,96.74
2023-05-05T20:16:22.141Z,96.93
2023-05-05T20:18:49.217Z,96.77
2023-05-05T20:21:17.448Z,97.18
2023-05-05T20:23:45.699Z,97.36
2023-05-05T20:26:12.853Z,97.35
2023-05-05T20:28:40.963Z,97.56
2023-05-05T20:31:10.500Z,97.56
2023-05-05T20:33:37.420Z,97.63
2023-05-05T20:36:04.464Z,97.68
2023-05-05T20:38:31.355Z,97.69
2023-05-05T20:40:58.315Z,97.68
2023-05-05T20:43:25.631Z,97.57
2023-05-05T20:45:52.685Z,97.69
2023-05-05T20:48:19.531Z,97.62
2023-05-05T20:50:46.508Z,97.55
2023-05-05T20:53:16.341Z,97.62
2023-05-05T20:55:43.346Z,97.73
2023-05-05T20:58:10.100Z,97.92
2023-05-05T21:00:36.983Z,97.83
2023-05-05T21:03:04.551Z,97.91
2023-05-05T21:05:31.846Z,98.10
2023-05-05T21:08:00.803Z,98.00
2023-05-05T21:10:29.151Z,97.79
2023-05-05T21:12:56.210Z,97.74
2023-05-05T21:15:23.180Z,97.76
2023-05-05T21:17:50.029Z,97.68
2023-05-05T21:20:18.843Z,97.55
2023-05-05T21:22:45.926Z,97.75
2023-05-05T21:25:17.644Z,97.90
2023-05-05T21:27:45.068Z,97.83
2023-05-05T21:30:12.425Z,97.73
2023-05-05T21:32:40.761Z,97.90
2023-05-05T21:35:08.883Z,97.82
2023-05-05T21:37:38.083Z,97.74
2023-05-05T21:40:14.138Z,97.76
2023-05-05T21:42:41.708Z,97.69
2023-05-05T21:45:09.337Z,97.79
2023-05-05T21:47:36.161Z,97.77
2023-05-05T21:50:03.125Z,97.84
2023-05-05T21:52:29.810Z,97.77
2023-05-05T21:54:56.676Z,97.63
2023-05-05T21:57:23.518Z,97.62
2023-05-05T21:59:50.277Z,97.81
2023-05-05T22:02:16.977Z,98.05
2023-05-05T22:04:46.319Z,98.20
2023-05-05T22:07:13.007Z,98.08
2023-05-05T22:09:39.694Z,97.98
2023-05-05T22:12:06.544Z,98.18
2023-05-05T22:14:33.234Z,98.24
2023-05-05T22:16:59.932Z,98.08
2023-05-05T22:19:26.734Z,98.03
2023-05-05T22:21:53.706Z,97.76
2023-05-05T22:24:20.615Z,97.75
2023-05-05T22:26:48.133Z,98.16
2023-05-05T22:29:14.808Z,98.22
2023-05-05T22:31:41.804Z,97.92
2023-05-05T22:34:08.592Z,98.07
2023-05-05T22:36:35.541Z,98.00
2023-05-05T22:39:02.230Z,97.97
2023-05-05T22:41:28.973Z,97.74
2023-05-05T22:43:58.235Z,97.94
2023-05-05T22:46:25.052Z,98.09
2023-05-05T22:48:53.323Z,98.37
2023-05-05T22:51:20.059Z,98.17
2023-05-05T22:53:46.742Z,97.88
2023-05-05T22:56:13.690Z,97.65
2023-05-05T22:58:40.615Z,97.39
2023-05-05T23:01:07.531Z,97.30
2023-05-05T23:03:34.313Z,97.23
2023-05-05T23:06:01.425Z,97.33
2023-05-05T23:08:28.206Z,97.50
2023-05-05T23:10:54.989Z,97.79
2023-05-05T23:13:21.749Z,97.76
2023-05-05T23:15:48.474Z,97.79
2023-05-05T23:18:15.190Z,97.76
2023-05-05T23:20:42.069Z,97.76
2023-05-05T23:23:08.773Z,97.96
2023-05-05T23:25:35.960Z,98.06
2023-05-05T23:28:02.958Z,98.23
2023-05-05T23:30:29.814Z,98.52
2023-05-05T23:32:58.260Z,98.62
2023-05-05T23:35:25.131Z,98.84
2023-05-05T23:37:51.918Z,99.02
2023-05-05T23:40:19.658Z,99.09
2023-05-05T23:42:46.431Z,98.89
2023-05-05T23:45:13.370Z,98.76
2023-05-05T23:47:40.169Z,98.79
2023-05-05T23:50:07.581Z,98.75
2023-05-05T23:52:34.269Z,99.00
2023-05-05T23:55:01.099Z,99.21
